Time;durP1;ratioP1;P1;durP2;ratioP2;P2;SDS_P1;SDS_P2;PMS_P1;PMS_P2;Temp;Humidity;BMP_temperature;BMP_pressure;BME280_temperature;BME280_humidity;BME280_pressure;Samples;Min_cycle;Max_cycle;Signal;HPM_P1;HPM_P2
2021/11/15 00:01:50;;;;;;;10.47;9.37;;;9.80;92.90;;;;;;5029892;28;20254;-91
2021/11/15 00:04:18;;;;;;;8.83;7.93;;;9.90;92.80;;;;;;5010186;28;20213;-91
2021/11/15 00:06:44;;;;;;;9.27;8.27;;;9.80;92.10;;;;;;5027525;28;20209;-90
2021/11/15 00:09:10;;;;;;;9.73;8.73;;;9.80;92.00;;;;;;5028808;28;20261;-90
2021/11/15 00:11:36;;;;;;;9.47;8.47;;;9.80;92.30;;;;;;5028488;28;20248;-90
2021/11/15 00:14:02;;;;;;;9.43;8.53;;;9.80;92.20;;;;;;5027347;28;20242;-90
2021/11/15 00:16:28;;;;;;;9.00;7.70;;;9.80;91.70;;;;;;5029134;28;20185;-90
2021/11/15 00:18:55;;;;;;;10.13;8.90;;;9.80;92.30;;;;;;5028873;28;20220;-90
2021/11/15 00:21:21;;;;;;;9.57;7.77;;;9.80;91.90;;;;;;5015174;28;20205;-90
2021/11/15 00:23:47;;;;;;;10.13;9.13;;;9.80;92.60;;;;;;5023029;28;20214;-91
2021/11/15 00:26:13;;;;;;;9.37;8.30;;;9.80;92.10;;;;;;5045418;28;20221;-91
2021/11/15 00:28:39;;;;;;;11.20;9.00;;;9.70;93.20;;;;;;5011263;28;20199;-90
2021/11/15 00:31:06;;;;;;;9.13;8.23;;;9.80;93.00;;;;;;5026708;28;20201;-90
2021/11/15 00:33:32;;;;;;;8.80;7.93;;;9.80;92.30;;;;;;5028154;28;20189;-89
2021/11/15 00:35:58;;;;;;;9.57;8.50;;;9.80;92.10;;;;;;5046413;28;20223;-89
2021/11/15 00:38:24;;;;;;;9.77;8.87;;;9.80;92.20;;;;;;5027857;28;20209;-89
2021/11/15 00:40:50;;;;;;;10.03;8.80;;;9.80;92.70;;;;;;5027692;28;20216;-89
2021/11/15 00:43:16;;;;;;;9.33;8.43;;;9.80;92.50;;;;;;5028389;28;20185;-90
2021/11/15 00:45:42;;;;;;;9.40;8.47;;;9.80;92.50;;;;;;5028067;28;20188;-90
2021/11/15 00:48:09;;;;;;;10.17;9.17;;;9.80;92.90;;;;;;5035416;28;20219;-89
2021/11/15 00:50:36;;;;;;;11.77;9.43;;;9.80;92.80;;;;;;5028057;28;20196;-89
2021/11/15 00:53:02;;;;;;;10.13;8.90;;;9.80;93.10;;;;;;5045391;28;20224;-89
2021/11/15 00:55:28;;;;;;;10.50;9.40;;;9.80;93.60;;;;;;5027767;28;20568;-90
2021/11/15 00:57:55;;;;;;;9.30;8.40;;;9.80;93.30;;;;;;5027315;28;20208;-90
2021/11/15 01:00:26;;;;;;;10.33;9.30;;;9.70;93.90;;;;;;5011170;28;20213;-91
2021/11/15 01:02:53;;;;;;;10.13;9.13;;;9.70;93.50;;;;;;5009537;28;20185;-91
2021/11/15 01:05:19;;;;;;;11.30;10.10;;;9.80;93.80;;;;;;5053354;28;20195;-90
2021/11/15 01:07:45;;;;;;;11.67;10.47;;;9.80;93.50;;;;;;5025700;28;20205;-90
2021/11/15 01:10:14;;;;;;;10.20;9.20;;;9.80;93.40;;;;;;5023810;28;20212;-89
2021/11/15 01:12:40;;;;;;;12.30;10.13;;;9.70;93.60;;;;;;5042091;28;20192;-91
2021/11/15 01:15:08;;;;;;;11.03;9.93;;;9.70;93.70;;;;;;5024130;28;20189;-91
2021/11/15 01:17:35;;;;;;;11.37;9.80;;;9.70;94.70;;;;;;5042651;28;20200;-90
2021/11/15 01:20:01;;;;;;;10.27;9.27;;;9.70;94.40;;;;;;5041111;28;20216;-91
2021/11/15 01:22:27;;;;;;;11.40;9.77;;;9.70;93.70;;;;;;5004953;28;20189;-90
2021/11/15 01:24:53;;;;;;;11.03;9.87;;;9.70;94.20;;;;;;5039931;28;20207;-90
2021/11/15 01:27:18;;;;;;;11.90;10.80;;;9.70;94.60;;;;;;5041013;28;20209;-91
2021/11/15 01:29:45;;;;;;;11.50;10.33;;;9.60;94.50;;;;;;5040755;28;20208;-90
2021/11/15 01:32:11;;;;;;;10.73;9.63;;;9.60;94.20;;;;;;5042000;28;20181;-91
2021/11/15 01:34:37;;;;;;;13.17;11.80;;;9.70;94.00;;;;;;5046767;28;20195;-91
2021/11/15 01:37:04;;;;;;;11.37;10.03;;;9.60;94.70;;;;;;5041173;28;20247;-91
2021/11/15 01:39:30;;;;;;;11.10;10.00;;;9.60;93.70;;;;;;5024738;28;20473;-91
2021/11/15 01:41:56;;;;;;;11.80;10.60;;;9.70;93.80;;;;;;5024781;28;20181;-90
2021/11/15 01:44:21;;;;;;;11.37;10.27;;;9.60;93.90;;;;;;5022572;28;20216;-91
2021/11/15 01:46:48;;;;;;;10.57;9.57;;;9.70;92.20;;;;;;5022636;28;20211;-90
2021/11/15 01:49:14;;;;;;;11.43;9.80;;;9.70;91.30;;;;;;5040806;28;20192;-90
2021/11/15 01:51:40;;;;;;;10.70;9.67;;;9.70;91.60;;;;;;5022133;28;20872;-90
2021/11/15 01:54:06;;;;;;;11.40;10.13;;;9.60;91.20;;;;;;5040353;28;20177;-93
2021/11/15 01:56:32;;;;;;;11.63;10.23;;;9.60;91.40;;;;;;5055702;28;20200;-90
2021/11/15 01:59:00;;;;;;;12.03;9.90;;;9.60;90.90;;;;;;5040877;28;20757;-91
2021/11/15 02:01:26;;;;;;;12.53;10.50;;;9.50;91.40;;;;;;5046630;28;20253;-93
2021/11/15 02:03:52;;;;;;;13.23;10.93;;;9.60;90.30;;;;;;5060586;28;20177;-93
2021/11/15 02:06:18;;;;;;;12.60;10.43;;;9.50;90.30;;;;;;5023037;28;20232;-90
2021/11/15 02:08:44;;;;;;;12.03;10.50;;;9.50;91.20;;;;;;5040533;28;20189;-90
2021/11/15 02:11:09;;;;;;;10.43;9.43;;;9.50;90.60;;;;;;5042959;28;20199;-90
2021/11/15 02:13:35;;;;;;;11.83;10.63;;;9.50;90.20;;;;;;5043194;28;20185;-90
2021/11/15 02:16:02;;;;;;;11.80;10.60;;;9.50;90.10;;;;;;5025045;28;20194;-90
2021/11/15 02:18:28;;;;;;;12.13;10.30;;;9.50;89.80;;;;;;5030414;28;20215;-90
2021/11/15 02:20:57;;;;;;;13.40;11.63;;;9.50;90.10;;;;;;5022925;28;20268;-90
2021/11/15 02:23:24;;;;;;;12.10;10.13;;;9.60;89.50;;;;;;5042489;28;20205;-90
2021/11/15 02:25:52;;;;;;;13.80;10.27;;;9.50;89.20;;;;;;5042532;28;20244;-91
2021/11/15 02:28:23;;;;;;;11.50;10.30;;;9.50;89.00;;;;;;5006245;28;20198;-91
2021/11/15 02:30:49;;;;;;;12.97;10.33;;;9.50;89.50;;;;;;5043359;28;20181;-90
2021/11/15 02:33:14;;;;;;;12.37;10.80;;;9.50;89.80;;;;;;5037032;28;20196;-90
2021/11/15 02:35:40;;;;;;;11.57;10.37;;;9.40;89.70;;;;;;5031441;28;20208;-91
2021/11/15 02:38:06;;;;;;;11.83;10.57;;;9.40;90.10;;;;;;5008252;28;20267;-90
2021/11/15 02:40:32;;;;;;;12.73;10.87;;;9.50;90.00;;;;;;5024991;28;20205;-90
2021/11/15 02:43:00;;;;;;;14.77;11.10;;;9.40;88.40;;;;;;5043418;28;20204;-91
2021/11/15 02:45:27;;;;;;;13.43;11.23;;;9.40;88.50;;;;;;5042375;28;20186;-91
2021/11/15 02:47:54;;;;;;;15.50;10.77;;;9.40;88.60;;;;;;5042471;28;20665;-90
2021/11/15 02:50:22;;;;;;;13.57;10.77;;;9.30;88.80;;;;;;5042442;28;20196;-91
2021/11/15 02:52:55;;;;;;;13.90;11.10;;;9.40;87.90;;;;;;5053791;28;20197;-92
2021/11/15 02:55:21;;;;;;;13.17;10.87;;;9.30;88.40;;;;;;5035480;28;20184;-90
2021/11/15 02:57:47;;;;;;;12.97;10.30;;;9.40;88.60;;;;;;5063212;28;20627;-90
2021/11/15 03:00:44;;;;;;;12.37;11.07;;;9.30;88.50;;;;;;5050765;28;20231;-91
2021/11/15 03:03:11;;;;;;;13.63;10.70;;;9.30;88.50;;;;;;5016417;28;20198;-90
2021/11/15 03:05:39;;;;;;;14.40;11.03;;;9.30;88.60;;;;;;5041899;28;20189;-90
2021/11/15 03:08:07;;;;;;;12.33;10.80;;;9.30;88.20;;;;;;5042002;28;20216;-91
2021/11/15 03:10:35;;;;;;;12.97;10.57;;;9.30;88.40;;;;;;5041740;28;20570;-90
2021/11/15 03:13:01;;;;;;;13.07;10.20;;;9.30;88.50;;;;;;5040929;28;20189;-90
2021/11/15 03:15:37;;;;;;;14.33;11.93;;;9.30;89.00;;;;;;5042296;28;20189;-91
2021/11/15 03:18:08;;;;;;;14.47;10.40;;;9.20;88.40;;;;;;4999734;28;20221;-90
2021/11/15 03:20:38;;;;;;;12.73;10.83;;;9.20;88.20;;;;;;5032725;28;20213;-90
2021/11/15 03:23:06;;;;;;;14.37;11.03;;;9.20;88.20;;;;;;5042135;28;20181;-91
2021/11/15 03:25:32;;;;;;;14.03;10.83;;;9.20;88.60;;;;;;5042429;28;20189;-90
2021/11/15 03:27:58;;;;;;;15.43;11.13;;;9.10;88.40;;;;;;5025029;28;20215;-91
2021/11/15 03:30:26;;;;;;;13.43;11.67;;;9.10;88.60;;;;;;5043102;28;20619;-91
2021/11/15 03:32:53;;;;;;;16.03;11.03;;;9.10;89.60;;;;;;5046012;28;20176;-90
2021/11/15 03:35:19;;;;;;;14.73;12.37;;;9.10;88.90;;;;;;5043646;28;20244;-91
2021/11/15 03:37:45;;;;;;;13.27;10.93;;;9.10;88.70;;;;;;5043443;28;20205;-90
2021/11/15 03:40:15;;;;;;;12.43;10.87;;;9.00;89.20;;;;;;5024182;28;20297;-90
2021/11/15 03:42:44;;;;;;;14.63;11.93;;;9.10;89.00;;;;;;5034645;28;20667;-90
2021/11/15 03:45:12;;;;;;;12.70;10.03;;;9.10;88.60;;;;;;5033027;28;20189;-89
2021/11/15 03:47:37;;;;;;;15.30;10.90;;;9.10;88.70;;;;;;5041913;28;20208;-90
2021/11/15 03:50:05;;;;;;;14.67;11.23;;;9.10;88.70;;;;;;5038440;28;20588;-90
2021/11/15 03:52:31;;;;;;;13.50;11.13;;;9.10;88.60;;;;;;5036650;28;20193;-91
2021/11/15 03:54:57;;;;;;;13.93;10.60;;;9.00;88.60;;;;;;5022827;28;20246;-90
2021/11/15 03:57:23;;;;;;;12.17;10.63;;;9.00;90.10;;;;;;5036517;28;20225;-89
2021/11/15 03:59:49;;;;;;;12.47;10.03;;;9.00;89.20;;;;;;5036225;28;20220;-90
2021/11/15 04:02:16;;;;;;;13.17;10.47;;;8.90;89.40;;;;;;5041440;28;20193;-89
2021/11/15 04:04:58;;;;;;;13.40;10.07;;;9.00;89.70;;;;;;5038636;28;20189;-90
2021/11/15 04:07:43;;;;;;;13.77;10.43;;;9.00;89.50;;;;;;5007455;28;20221;-90
2021/11/15 04:10:14;;;;;;;12.60;11.00;;;9.00;89.30;;;;;;5026181;28;20207;-90
2021/11/15 04:12:42;;;;;;;14.97;10.40;;;8.90;90.00;;;;;;5041986;28;20288;-90
2021/11/15 04:15:09;;;;;;;13.70;11.27;;;8.90;88.90;;;;;;5031916;28;20204;-90
2021/11/15 04:17:36;;;;;;;13.33;10.67;;;8.90;89.60;;;;;;5045641;28;20326;-89
2021/11/15 04:20:05;;;;;;;13.27;11.27;;;8.90;89.30;;;;;;5047671;28;20316;-91
2021/11/15 04:22:31;;;;;;;13.60;11.00;;;8.90;89.70;;;;;;5043823;28;20224;-89
2021/11/15 04:24:56;;;;;;;14.80;11.43;;;8.90;89.80;;;;;;5022652;28;20185;-90
2021/11/15 04:27:22;;;;;;;14.20;10.93;;;8.90;89.60;;;;;;5038860;28;20230;-90
2021/11/15 04:29:48;;;;;;;13.37;11.00;;;8.90;89.40;;;;;;5022981;28;20201;-90
2021/11/15 04:32:14;;;;;;;12.47;10.87;;;8.90;88.80;;;;;;5021391;28;20193;-89
2021/11/15 04:34:39;;;;;;;14.63;11.37;;;8.90;89.30;;;;;;5040740;28;20438;-90
2021/11/15 04:37:05;;;;;;;13.57;10.73;;;8.90;89.00;;;;;;5042876;28;20216;-89
2021/11/15 04:39:31;;;;;;;16.57;11.47;;;8.90;89.60;;;;;;5039939;28;20296;-89
2021/11/15 04:41:57;;;;;;;14.73;11.23;;;8.90;89.30;;;;;;5047893;28;20197;-90
2021/11/15 04:44:23;;;;;;;11.97;10.67;;;8.80;89.40;;;;;;5041861;28;20199;-90
2021/11/15 04:46:49;;;;;;;12.83;11.07;;;8.80;89.50;;;;;;5033163;28;20209;-89
2021/11/15 04:49:14;;;;;;;12.83;10.47;;;8.90;89.40;;;;;;5070652;28;20179;-89
2021/11/15 04:51:40;;;;;;;14.27;10.80;;;8.90;89.10;;;;;;5059467;28;20189;-91
2021/11/15 04:54:07;;;;;;;13.50;11.17;;;8.80;88.80;;;;;;5025445;28;20201;-90
2021/11/15 04:56:33;;;;;;;15.37;11.57;;;8.80;89.50;;;;;;5042315;28;20188;-91
2021/11/15 04:58:59;;;;;;;14.17;11.87;;;8.80;89.50;;;;;;5009471;28;20280;-90
2021/11/15 05:01:24;;;;;;;15.13;11.67;;;8.70;90.20;;;;;;5029318;28;20177;-90
2021/11/15 05:03:50;;;;;;;13.10;11.27;;;8.70;90.00;;;;;;5036791;28;20216;-92
2021/11/15 05:06:16;;;;;;;13.60;10.70;;;8.70;90.40;;;;;;5037535;28;20236;-90
2021/11/15 05:08:43;;;;;;;15.27;11.60;;;8.70;89.60;;;;;;5032519;28;20248;-90
2021/11/15 05:11:08;;;;;;;16.93;12.03;;;8.70;90.30;;;;;;5030113;28;20193;-90
2021/11/15 05:13:34;;;;;;;14.43;11.87;;;8.80;89.80;;;;;;5014506;28;20268;-89
2021/11/15 05:16:01;;;;;;;15.33;11.03;;;8.70;89.40;;;;;;5046101;28;20220;-91
2021/11/15 05:18:27;;;;;;;13.77;11.37;;;8.70;89.80;;;;;;5015706;28;20217;-91
2021/11/15 05:20:52;;;;;;;16.23;11.03;;;8.70;90.60;;;;;;5012400;28;20323;-91
2021/11/15 05:23:18;;;;;;;12.37;11.07;;;8.70;90.40;;;;;;5046378;28;20200;-91
2021/11/15 05:25:44;;;;;;;14.13;11.10;;;8.70;90.00;;;;;;5035884;28;20197;-91
2021/11/15 05:28:10;;;;;;;13.77;11.03;;;8.70;89.60;;;;;;5020686;28;20221;-91
2021/11/15 05:30:36;;;;;;;14.20;10.93;;;8.70;90.00;;;;;;5040302;28;20231;-90
2021/11/15 05:33:02;;;;;;;14.50;11.13;;;8.70;89.40;;;;;;5004925;28;20189;-90
2021/11/15 05:35:28;;;;;;;13.13;11.23;;;8.70;89.50;;;;;;5044995;28;20193;-90
2021/11/15 05:37:55;;;;;;;13.00;11.23;;;8.60;90.10;;;;;;5021430;28;20217;-89
2021/11/15 05:40:23;;;;;;;13.87;11.07;;;8.60;90.00;;;;;;5035155;28;20209;-89
2021/11/15 05:42:50;;;;;;;12.43;10.63;;;8.60;89.60;;;;;;5020159;28;20215;-89
2021/11/15 05:45:16;;;;;;;13.53;10.97;;;8.60;90.30;;;;;;5043690;28;20184;-89
2021/11/15 05:47:42;;;;;;;12.20;10.90;;;8.60;89.70;;;;;;5015775;28;20260;-90
2021/11/15 05:50:10;;;;;;;14.73;11.03;;;8.60;89.90;;;;;;5020992;28;20221;-89
2021/11/15 05:52:42;;;;;;;14.77;11.57;;;8.60;90.00;;;;;;5036625;28;20193;-89
2021/11/15 05:55:11;;;;;;;12.37;10.67;;;8.70;89.80;;;;;;5026578;28;20229;-90
2021/11/15 05:57:37;;;;;;;12.10;9.93;;;8.70;89.90;;;;;;5037037;28;20256;-89
2021/11/15 06:00:09;;;;;;;13.93;10.03;;;8.60;89.90;;;;;;5034993;28;20213;-89
2021/11/15 06:02:35;;;;;;;13.67;10.27;;;8.60;89.60;;;;;;5044777;28;20639;-88
2021/11/15 06:05:00;;;;;;;14.63;10.33;;;8.60;89.60;;;;;;5041612;28;20220;-89
2021/11/15 06:07:26;;;;;;;13.23;10.40;;;8.60;89.60;;;;;;5031446;28;20213;-89
2021/11/15 06:09:52;;;;;;;13.90;10.70;;;8.60;90.20;;;;;;5011014;28;20197;-89
2021/11/15 06:12:17;;;;;;;11.27;9.37;;;8.60;89.90;;;;;;5023889;28;20657;-89
2021/11/15 06:14:43;;;;;;;12.83;10.53;;;8.60;90.00;;;;;;5027502;28;20196;-89
2021/11/15 06:17:09;;;;;;;11.17;9.40;;;8.60;90.10;;;;;;5037585;28;20220;-90
2021/11/15 06:19:35;;;;;;;12.07;10.77;;;8.60;90.00;;;;;;5039966;28;20383;-89
2021/11/15 06:22:01;;;;;;;11.33;10.10;;;8.50;90.00;;;;;;5040073;28;20266;-89
2021/11/15 06:24:27;;;;;;;12.53;10.20;;;8.50;90.10;;;;;;5016978;28;20193;-90
2021/11/15 06:26:53;;;;;;;13.50;10.27;;;8.60;90.40;;;;;;5023976;28;20212;-89
2021/11/15 06:29:19;;;;;;;11.63;9.80;;;8.50;90.10;;;;;;5037421;28;20201;-89
2021/11/15 06:31:45;;;;;;;15.00;9.87;;;8.60;90.00;;;;;;5025522;28;20197;-89
2021/11/15 06:34:11;;;;;;;13.53;9.90;;;8.60;90.10;;;;;;5028332;28;20572;-89
2021/11/15 06:36:37;;;;;;;12.40;10.47;;;8.60;90.10;;;;;;5029213;28;20270;-90
2021/11/15 06:39:04;;;;;;;13.27;10.50;;;8.60;89.80;;;;;;5026396;28;20217;-89
2021/11/15 06:41:33;;;;;;;11.83;10.20;;;8.50;90.80;;;;;;5044609;28;20212;-89
2021/11/15 06:43:59;;;;;;;11.07;9.73;;;8.60;90.20;;;;;;5022584;28;20201;-90
2021/11/15 06:46:29;;;;;;;12.83;10.73;;;8.50;90.20;;;;;;5046811;28;20497;-90
2021/11/15 06:48:55;;;;;;;13.17;11.17;;;8.60;90.10;;;;;;5008124;28;20200;-90
2021/11/15 06:51:21;;;;;;;11.67;10.43;;;8.60;90.40;;;;;;5026266;28;20254;-90
2021/11/15 06:53:47;;;;;;;12.23;10.10;;;8.50;90.70;;;;;;5027541;28;20201;-90
2021/11/15 06:56:12;;;;;;;13.60;10.27;;;8.50;90.20;;;;;;5027577;28;20192;-90
2021/11/15 06:58:39;;;;;;;11.27;10.00;;;8.40;90.80;;;;;;5046771;28;20212;-89
2021/11/15 07:01:05;;;;;;;15.10;10.23;;;8.40;90.70;;;;;;5038681;28;20543;-90
2021/11/15 07:03:32;;;;;;;16.17;10.47;;;8.50;90.50;;;;;;5029492;28;20272;-90
2021/11/15 07:05:58;;;;;;;13.87;11.93;;;8.50;90.30;;;;;;5009709;28;20284;-91
2021/11/15 07:08:24;;;;;;;17.70;13.63;;;8.40;90.00;;;;;;5023801;28;20259;-91
2021/11/15 07:10:50;;;;;;;17.57;13.57;;;8.40;90.70;;;;;;5040251;28;20177;-90
2021/11/15 07:13:16;;;;;;;15.83;12.93;;;8.40;90.90;;;;;;5042686;28;20214;-90
2021/11/15 07:15:43;;;;;;;18.23;14.37;;;8.40;89.90;;;;;;5046151;28;20183;-90
2021/11/15 07:18:10;;;;;;;16.97;13.27;;;8.50;90.60;;;;;;5046940;28;20209;-89
2021/11/15 07:20:36;;;;;;;24.93;18.13;;;8.40;90.50;;;;;;5044122;28;20216;-89
2021/11/15 07:23:03;;;;;;;21.77;14.97;;;8.40;90.30;;;;;;5029915;28;20199;-89
2021/11/15 07:25:29;;;;;;;13.37;11.50;;;8.40;90.60;;;;;;5057076;28;20208;-90
2021/11/15 07:27:56;;;;;;;16.80;14.23;;;8.40;91.00;;;;;;5021140;28;20216;-89
2021/11/15 07:30:23;;;;;;;22.90;15.10;;;8.50;90.90;;;;;;5024728;28;20193;-88
2021/11/15 07:32:50;;;;;;;13.47;11.30;;;8.40;91.00;;;;;;5049271;28;20193;-89
2021/11/15 07:35:17;;;;;;;16.73;14.43;;;8.40;90.60;;;;;;5018117;28;20224;-87
2021/11/15 07:37:43;;;;;;;13.47;10.30;;;8.40;90.90;;;;;;5047787;28;20288;-88
2021/11/15 07:40:12;;;;;;;11.33;10.13;;;8.30;90.70;;;;;;5037920;28;20207;-88
2021/11/15 07:42:38;;;;;;;13.60;11.03;;;8.30;91.40;;;;;;5027927;28;20683;-89
2021/11/15 07:45:04;;;;;;;11.93;10.63;;;8.30;91.20;;;;;;5032441;28;20192;-88
2021/11/15 07:47:31;;;;;;;14.77;10.67;;;8.30;91.20;;;;;;5031336;28;20581;-88
2021/11/15 07:49:56;;;;;;;13.60;10.27;;;8.30;91.40;;;;;;5009240;28;20189;-89
2021/11/15 07:52:22;;;;;;;11.30;9.80;;;8.40;91.00;;;;;;5040291;28;20268;-89
2021/11/15 07:54:48;;;;;;;11.43;9.53;;;8.40;90.80;;;;;;5011874;28;20213;-89
2021/11/15 07:57:18;;;;;;;11.43;9.27;;;8.40;90.70;;;;;;5026406;28;20583;-89
2021/11/15 07:59:45;;;;;;;10.40;9.37;;;8.40;90.90;;;;;;5022972;28;20293;-88
2021/11/15 08:02:12;;;;;;;11.23;10.03;;;8.40;90.60;;;;;;5021820;28;20184;-89
2021/11/15 08:04:38;;;;;;;14.50;12.97;;;8.40;90.70;;;;;;5040416;28;20216;-89
2021/11/15 08:07:05;;;;;;;12.37;11.03;;;8.40;90.70;;;;;;5044331;28;20232;-89
2021/11/15 08:09:31;;;;;;;11.90;10.70;;;8.40;91.00;;;;;;5042590;28;20200;-88
2021/11/15 08:12:02;;;;;;;10.27;9.27;;;8.40;90.90;;;;;;5044218;28;20191;-88
2021/11/15 08:14:29;;;;;;;11.40;9.67;;;8.40;90.80;;;;;;5024652;28;20192;-89
2021/11/15 08:16:55;;;;;;;11.43;9.57;;;8.40;90.90;;;;;;5032782;28;20221;-89
2021/11/15 08:19:20;;;;;;;10.27;9.17;;;8.40;90.70;;;;;;5008224;28;20353;-90
2021/11/15 08:21:48;;;;;;;10.20;9.20;;;8.40;90.70;;;;;;5020935;28;20189;-90
2021/11/15 08:24:17;;;;;;;22.50;10.33;;;8.50;90.80;;;;;;5024511;28;20203;-89
2021/11/15 08:27:02;;;;;;;12.10;9.40;;;8.40;90.60;;;;;;5020945;28;20231;-89
2021/11/15 08:29:32;;;;;;;10.93;9.27;;;8.40;90.60;;;;;;5040061;28;20215;-89
2021/11/15 08:32:03;;;;;;;9.87;8.87;;;8.40;90.20;;;;;;5003738;28;20291;-89
2021/11/15 08:34:29;;;;;;;10.53;9.00;;;8.40;90.70;;;;;;4993529;28;20664;-90
2021/11/15 08:36:55;;;;;;;10.63;9.43;;;8.50;90.70;;;;;;5017499;28;20227;-90
2021/11/15 08:39:24;;;;;;;10.10;8.83;;;8.50;90.60;;;;;;5034921;28;20212;-90
2021/11/15 08:41:56;;;;;;;12.10;9.43;;;8.50;90.50;;;;;;5039489;28;20192;-90
2021/11/15 08:44:23;;;;;;;10.30;9.03;;;8.50;90.70;;;;;;5009964;28;20683;-90
2021/11/15 08:46:52;;;;;;;9.87;8.87;;;8.50;90.50;;;;;;5032004;28;20262;-90
2021/11/15 08:49:23;;;;;;;10.93;9.13;;;8.40;90.30;;;;;;5028892;28;20197;-90
2021/11/15 08:51:50;;;;;;;12.77;10.37;;;8.40;90.50;;;;;;5027532;28;20203;-91
2021/11/15 08:54:18;;;;;;;10.53;9.47;;;8.50;90.90;;;;;;5028551;28;20192;-89
2021/11/15 08:56:55;;;;;;;12.40;9.40;;;8.50;90.30;;;;;;5043789;28;20212;-92
2021/11/15 08:59:21;;;;;;;11.53;9.60;;;8.50;90.10;;;;;;5045198;28;20251;-90
2021/11/15 09:01:48;;;;;;;10.10;9.10;;;8.50;90.40;;;;;;5039817;28;20193;-91
2021/11/15 09:04:14;;;;;;;10.50;9.13;;;8.50;90.30;;;;;;5044201;28;20181;-91
2021/11/15 09:06:41;;;;;;;11.27;8.40;;;8.40;90.10;;;;;;5025772;28;20682;-89
2021/11/15 09:09:14;;;;;;;14.43;8.90;;;8.50;90.40;;;;;;5039324;28;20723;-89
2021/11/15 09:11:41;;;;;;;10.53;8.80;;;8.40;90.60;;;;;;5016067;28;20193;-89
2021/11/15 09:14:06;;;;;;;11.97;9.77;;;8.50;89.90;;;;;;5031384;28;20193;-89
2021/11/15 09:16:32;;;;;;;15.60;9.67;;;8.50;90.10;;;;;;5015730;28;20253;-89
2021/11/15 09:18:58;;;;;;;11.70;8.57;;;8.50;90.40;;;;;;5025550;28;20228;-87
2021/11/15 09:21:24;;;;;;;9.80;8.73;;;8.50;90.20;;;;;;5035201;28;20211;-89
2021/11/15 09:23:49;;;;;;;11.97;9.57;;;8.60;89.90;;;;;;5042357;28;20205;-90
2021/11/15 09:26:20;;;;;;;10.07;9.07;;;8.60;90.10;;;;;;5035210;28;20220;-90
2021/11/15 09:28:46;;;;;;;11.83;9.13;;;8.60;89.80;;;;;;5038556;28;20181;-89
2021/11/15 09:31:13;;;;;;;11.23;8.80;;;8.70;89.80;;;;;;5022319;28;20208;-89
2021/11/15 09:33:39;;;;;;;10.63;9.57;;;8.60;89.50;;;;;;5029947;28;20189;-89
2021/11/15 09:36:05;;;;;;;9.67;8.70;;;8.60;89.60;;;;;;5022099;28;20185;-89
2021/11/15 09:38:32;;;;;;;10.53;9.40;;;8.60;89.80;;;;;;5040345;28;20231;-90
2021/11/15 09:41:02;;;;;;;11.43;9.17;;;8.60;89.50;;;;;;5024320;28;20192;-90
2021/11/15 09:43:34;;;;;;;11.43;9.73;;;8.60;90.00;;;;;;5021568;28;20193;-90
2021/11/15 09:46:02;;;;;;;9.63;8.63;;;8.60;90.10;;;;;;5019301;28;20695;-89
2021/11/15 09:48:34;;;;;;;9.87;8.57;;;8.70;89.70;;;;;;5025700;28;20205;-88
2021/11/15 09:51:02;;;;;;;9.97;8.93;;;8.60;89.30;;;;;;5037863;28;20193;-89
2021/11/15 09:53:28;;;;;;;12.33;9.53;;;8.60;89.50;;;;;;5020205;28;20201;-89
2021/11/15 09:55:55;;;;;;;9.97;8.97;;;8.60;89.60;;;;;;5042370;28;20196;-89
2021/11/15 09:58:22;;;;;;;11.70;9.07;;;8.50;90.00;;;;;;5027704;28;20219;-88
2021/11/15 10:00:48;;;;;;;10.10;9.10;;;8.60;90.50;;;;;;5042924;28;20732;-89
2021/11/15 10:03:15;;;;;;;14.37;11.70;;;8.60;90.20;;;;;;5006226;28;20217;-88
2021/11/15 10:05:40;;;;;;;10.20;9.20;;;8.60;89.70;;;;;;5028678;28;20197;-89
2021/11/15 10:08:12;;;;;;;10.73;8.77;;;8.60;89.60;;;;;;5047230;28;20224;-89
2021/11/15 10:10:45;;;;;;;10.57;9.33;;;8.60;90.00;;;;;;5050553;28;20184;-88
2021/11/15 10:13:16;;;;;;;11.93;10.30;;;8.60;89.80;;;;;;5041538;28;20165;-89
2021/11/15 10:15:59;;;;;;;10.50;9.27;;;8.60;90.10;;;;;;5024319;28;20268;-88
2021/11/15 10:18:33;;;;;;;9.90;7.57;;;8.60;90.10;;;;;;5040605;28;20301;-89
2021/11/15 10:21:02;;;;;;;11.90;10.37;;;8.60;90.40;;;;;;5059178;28;20204;-93
2021/11/15 10:23:35;;;;;;;12.80;10.43;;;8.70;90.40;;;;;;5056961;28;20169;-90
2021/11/15 10:26:21;;;;;;;11.70;8.87;;;8.70;90.00;;;;;;5046094;28;20181;-89
2021/11/15 10:28:51;;;;;;;9.60;8.57;;;8.70;89.90;;;;;;5030920;28;20842;-89
2021/11/15 10:31:29;;;;;;;9.10;7.77;;;8.80;90.20;;;;;;5042135;28;20189;-90
2021/11/15 10:33:56;;;;;;;8.60;7.63;;;8.80;89.70;;;;;;5041995;28;20189;-89
2021/11/15 10:36:47;;;;;;;11.20;9.20;;;8.80;89.50;;;;;;5030085;28;20185;-89
2021/11/15 10:39:13;;;;;;;11.07;8.77;;;8.80;89.20;;;;;;5031002;28;20559;-90
2021/11/15 10:41:39;;;;;;;11.03;7.43;;;8.90;89.40;;;;;;5040117;28;20196;-89
2021/11/15 10:44:09;;;;;;;8.80;7.60;;;8.90;88.60;;;;;;5048682;28;20200;-90
2021/11/15 10:46:38;;;;;;;12.47;7.83;;;8.90;88.90;;;;;;5039184;28;20215;-89
2021/11/15 10:49:08;;;;;;;10.67;7.90;;;8.80;89.00;;;;;;5036680;28;20205;-88
2021/11/15 10:51:52;;;;;;;9.03;7.60;;;8.90;89.00;;;;;;5017935;28;20292;-88
2021/11/15 10:54:33;;;;;;;9.43;8.13;;;8.90;89.40;;;;;;5016644;28;20291;-87
2021/11/15 10:57:20;;;;;;;9.43;8.53;;;8.80;89.10;;;;;;5037569;28;20286;-88
2021/11/15 11:00:06;;;;;;;8.00;7.20;;;8.80;89.10;;;;;;5038800;28;20308;-88
2021/11/15 11:03:01;;;;;;;9.83;8.40;;;8.80;89.20;;;;;;5034254;28;20190;-89
2021/11/15 11:05:28;;;;;;;8.90;7.90;;;8.70;89.50;;;;;;5023330;28;20238;-88
2021/11/15 11:08:13;;;;;;;11.33;8.93;;;8.70;89.80;;;;;;5034612;28;20209;-89
2021/11/15 11:11:03;;;;;;;7.97;7.17;;;8.80;89.40;;;;;;5030110;28;20216;-89
2021/11/15 11:13:55;;;;;;;9.27;7.03;;;8.80;89.60;;;;;;5047971;28;20176;-89
2021/11/15 11:16:36;;;;;;;10.03;7.57;;;8.70;89.40;;;;;;5008474;28;20207;-89
2021/11/15 11:19:57;;;;;;;9.10;8.23;;;8.70;89.40;;;;;;5020160;28;20701;-89
2021/11/15 11:27:15;;;;;;;9.07;8.13;;;8.90;89.30;;;;;;5030925;28;20208;-89
2021/11/15 11:29:47;;;;;;;8.87;8.00;;;8.90;89.20;;;;;;5014055;28;20208;-89
2021/11/15 11:32:16;;;;;;;9.37;7.70;;;8.90;89.00;;;;;;5024144;28;20299;-89
2021/11/15 11:34:42;;;;;;;9.77;7.97;;;8.80;89.80;;;;;;5025275;28;20196;-89
2021/11/15 11:37:13;;;;;;;9.47;8.47;;;8.80;89.90;;;;;;5037183;28;20295;-88
2021/11/15 11:39:44;;;;;;;11.33;8.03;;;8.90;89.40;;;;;;5026439;28;20249;-89
2021/11/15 11:42:14;;;;;;;13.53;7.97;;;8.90;89.60;;;;;;5011365;28;20193;-89
2021/11/15 11:44:40;;;;;;;9.10;7.53;;;8.90;89.80;;;;;;5049862;28;20185;-90
2021/11/15 11:49:42;;;;;;;9.53;8.00;;;8.90;89.60;;;;;;5057770;28;20219;-89
2021/11/15 11:52:12;;;;;;;11.73;8.50;;;8.90;89.40;;;;;;5032579;28;20185;-90
2021/11/15 11:54:41;;;;;;;9.70;7.90;;;8.90;89.50;;;;;;5042247;28;20199;-88
2021/11/15 11:57:14;;;;;;;9.87;8.87;;;8.80;89.50;;;;;;5023502;28;20209;-89
2021/11/15 11:59:57;;;;;;;12.20;8.40;;;8.80;89.50;;;;;;5053671;28;20224;-89
2021/11/15 12:02:31;;;;;;;10.73;8.63;;;8.80;89.70;;;;;;5034844;28;20180;-90
2021/11/15 12:05:05;;;;;;;10.43;8.37;;;8.80;90.10;;;;;;5032305;28;20195;-89
2021/11/15 12:07:55;;;;;;;11.67;9.07;;;8.80;89.70;;;;;;5060254;28;20215;-88
2021/11/15 12:10:56;;;;;;;9.47;8.17;;;8.80;89.50;;;;;;5060834;28;20195;-89
2021/11/15 12:13:30;;;;;;;10.33;8.37;;;8.80;89.90;;;;;;5069152;28;20210;-89
2021/11/15 12:16:04;;;;;;;11.40;9.07;;;8.80;90.10;;;;;;5050625;28;20279;-89
2021/11/15 12:18:37;;;;;;;10.20;9.20;;;8.80;89.80;;;;;;5028273;28;20281;-89
2021/11/15 12:21:09;;;;;;;43.47;28.00;;;8.80;90.00;;;;;;5058950;28;20181;-88
2021/11/15 12:23:42;;;;;;;45.13;33.97;;;8.80;90.10;;;;;;5044215;28;20292;-88
2021/11/15 12:26:15;;;;;;;23.30;18.50;;;8.80;89.60;;;;;;5044698;28;20195;-89
2021/11/15 12:28:43;;;;;;;16.13;14.53;;;8.80;90.10;;;;;;5069635;28;20212;-88
2021/11/15 12:31:15;;;;;;;14.80;13.30;;;8.80;90.30;;;;;;5057523;28;20200;-89
2021/11/15 12:33:45;;;;;;;15.43;12.27;;;8.90;90.00;;;;;;5152128;22;20336;-87
2021/11/15 12:36:25;;;;;;;13.33;10.67;;;8.90;89.70;;;;;;5038141;28;20188;-87
2021/11/15 12:39:04;;;;;;;14.43;11.73;;;8.80;89.90;;;;;;5000420;28;20212;-88
2021/11/15 12:41:32;;;;;;;11.93;10.13;;;8.90;90.10;;;;;;5003523;28;20677;-87
2021/11/15 12:44:09;;;;;;;10.60;8.43;;;8.80;90.10;;;;;;5006231;28;20192;-87
2021/11/15 12:46:41;;;;;;;17.50;9.53;;;8.80;90.00;;;;;;5013194;28;20193;-88
2021/11/15 12:49:38;;;;;;;15.00;9.97;;;8.80;89.90;;;;;;5035314;28;20228;-88
2021/11/15 12:52:14;;;;;;;12.40;9.13;;;8.80;90.40;;;;;;5013843;28;20283;-87
2021/11/15 12:54:39;;;;;;;9.73;8.47;;;8.80;90.40;;;;;;5012173;28;20196;-87
2021/11/15 12:57:27;;;;;;;12.33;9.83;;;8.80;90.40;;;;;;5016121;28;20189;-88
2021/11/15 12:59:57;;;;;;;12.47;10.30;;;8.80;90.00;;;;;;5029513;28;20209;-87